sensor_id;sensor_type;location;lat;lon;timestamp;pressure;altitude;pressure_sealevel;temperature;humidity
61337;BME280;47212;41.326;2.104;2023-06-04T00:01:37;101308.19;;;21.15;75.81
61337;BME280;47212;41.326;2.104;2023-06-04T00:06:40;101305.88;;;21.08;75.56
61337;BME280;47212;41.326;2.104;2023-06-04T00:11:44;101298.03;;;21.02;75.71
61337;BME280;47212;41.326;2.104;2023-06-04T00:16:51;101293.94;;;20.99;76.10
61337;BME280;47212;41.326;2.104;2023-06-04T00:22:03;101285.97;;;20.97;75.94
61337;BME280;47212;41.326;2.104;2023-06-04T00:27:10;101280.44;;;20.97;76.21
61337;BME280;47212;41.326;2.104;2023-06-04T00:32:16;101279.63;;;20.97;76.41
61337;BME280;47212;41.326;2.104;2023-06-04T00:37:27;101289.06;;;20.96;76.23
61337;BME280;47212;41.326;2.104;2023-06-04T00:42:51;101285.78;;;20.94;76.29
61337;BME280;47212;41.326;2.104;2023-06-04T00:48:07;101282.69;;;20.95;76.13
61337;BME280;47212;41.326;2.104;2023-06-04T00:53:12;101284.84;;;20.98;75.98
61337;BME280;47212;41.326;2.104;2023-06-04T00:58:22;101284.84;;;20.98;75.87
61337;BME280;47212;41.326;2.104;2023-06-04T01:08:43;101278.81;;;20.96;75.87
61337;BME280;47212;41.326;2.104;2023-06-04T01:13:47;101285.47;;;20.95;76.07
61337;BME280;47212;41.326;2.104;2023-06-04T01:19:00;101271.63;;;20.95;75.86
61337;BME280;47212;41.326;2.104;2023-06-04T01:24:20;101272.28;;;20.92;75.96
61337;BME280;47212;41.326;2.104;2023-06-04T01:29:56;101276.63;;;20.85;76.29
61337;BME280;47212;41.326;2.104;2023-06-04T01:35:13;101275.63;;;20.81;75.88
61337;BME280;47212;41.326;2.104;2023-06-04T01:40:21;101275.44;;;20.77;75.75
61337;BME280;47212;41.326;2.104;2023-06-04T01:45:40;101281.41;;;20.71;75.92
61337;BME280;47212;41.326;2.104;2023-06-04T01:50:44;101282.19;;;20.62;75.79
61337;BME280;47212;41.326;2.104;2023-06-04T01:56:02;101268.63;;;20.52;75.78
61337;BME280;47212;41.326;2.104;2023-06-04T02:01:10;101259.66;;;20.47;76.13
61337;BME280;47212;41.326;2.104;2023-06-04T02:06:18;101267.25;;;20.41;76.45
61337;BME280;47212;41.326;2.104;2023-06-04T02:11:26;101265.41;;;20.36;76.60
61337;BME280;47212;41.326;2.104;2023-06-04T02:16:50;101255.41;;;20.27;76.27
61337;BME280;47212;41.326;2.104;2023-06-04T02:22:03;101250.34;;;20.20;76.52
61337;BME280;47212;41.326;2.104;2023-06-04T02:27:13;101243.63;;;20.13;76.40
61337;BME280;47212;41.326;2.104;2023-06-04T02:32:33;101235.25;;;20.04;76.56
61337;BME280;47212;41.326;2.104;2023-06-04T02:38:02;101227.91;;;19.99;76.80
61337;BME280;47212;41.326;2.104;2023-06-04T02:43:12;101234.47;;;19.90;76.77
61337;BME280;47212;41.326;2.104;2023-06-04T02:48:26;101232.97;;;19.84;77.11
61337;BME280;47212;41.326;2.104;2023-06-04T02:53:44;101239.25;;;19.76;76.88
61337;BME280;47212;41.326;2.104;2023-06-04T02:58:58;101238.72;;;19.73;77.27
61337;BME280;47212;41.326;2.104;2023-06-04T03:04:04;101236.09;;;19.68;77.40
61337;BME280;47212;41.326;2.104;2023-06-04T03:09:18;101238.34;;;19.66;77.21
61337;BME280;47212;41.326;2.104;2023-06-04T03:14:26;101259.94;;;19.64;77.60
61337;BME280;47212;41.326;2.104;2023-06-04T03:19:41;101263.63;;;19.60;77.45
61337;BME280;47212;41.326;2.104;2023-06-04T03:25:10;101253.72;;;19.59;77.53
61337;BME280;47212;41.326;2.104;2023-06-04T03:30:24;101250.44;;;19.57;77.33
61337;BME280;47212;41.326;2.104;2023-06-04T03:35:54;101250.75;;;19.55;77.80
61337;BME280;47212;41.326;2.104;2023-06-04T03:41:06;101250.53;;;19.52;77.48
61337;BME280;47212;41.326;2.104;2023-06-04T03:46:20;101251.97;;;19.49;77.17
61337;BME280;47212;41.326;2.104;2023-06-04T03:51:26;101245.09;;;19.47;77.37
61337;BME280;47212;41.326;2.104;2023-06-04T03:56:39;101252.06;;;19.44;77.26
61337;BME280;47212;41.326;2.104;2023-06-04T04:08:53;101254.03;;;19.30;77.48
61337;BME280;47212;41.326;2.104;2023-06-04T04:13:56;101256.28;;;19.28;77.52
61337;BME280;47212;41.326;2.104;2023-06-04T04:18:59;101259.03;;;19.28;77.53
61337;BME280;47212;41.326;2.104;2023-06-04T04:25:53;101257.72;;;19.25;77.90
61337;BME280;47212;41.326;2.104;2023-06-04T04:32:50;101268.56;;;19.22;77.60
61337;BME280;47212;41.326;2.104;2023-06-04T04:38:03;101257.81;;;19.20;77.55
61337;BME280;47212;41.326;2.104;2023-06-04T04:43:15;101262.84;;;19.18;78.16
61337;BME280;47212;41.326;2.104;2023-06-04T04:49:12;101269.78;;;19.16;77.36
61337;BME280;47212;41.326;2.104;2023-06-04T04:54:16;101279.19;;;19.15;77.57
61337;BME280;47212;41.326;2.104;2023-06-04T04:59:26;101273.66;;;19.15;77.40
61337;BME280;47212;41.326;2.104;2023-06-04T05:04:31;101266.53;;;19.14;77.32
61337;BME280;47212;41.326;2.104;2023-06-04T05:09:34;101275.91;;;19.13;77.54
61337;BME280;47212;41.326;2.104;2023-06-04T05:14:37;101279.50;;;19.13;77.61
61337;BME280;47212;41.326;2.104;2023-06-04T05:19:41;101278.69;;;19.13;77.40
61337;BME280;47212;41.326;2.104;2023-06-04T05:24:48;101285.00;;;19.13;76.86
61337;BME280;47212;41.326;2.104;2023-06-04T05:30:11;101276.44;;;19.15;75.69
61337;BME280;47212;41.326;2.104;2023-06-04T05:35:19;101290.44;;;19.18;75.94
61337;BME280;47212;41.326;2.104;2023-06-04T05:40:28;101287.88;;;19.22;75.37
61337;BME280;47212;41.326;2.104;2023-06-04T05:45:33;101276.84;;;19.22;75.06
61337;BME280;47212;41.326;2.104;2023-06-04T05:50:35;101278.66;;;19.26;75.27
61337;BME280;47212;41.326;2.104;2023-06-04T05:55:38;101296.56;;;19.29;74.89
61337;BME280;47212;41.326;2.104;2023-06-04T06:00:42;101294.31;;;19.31;74.90
61337;BME280;47212;41.326;2.104;2023-06-04T06:05:44;101305.75;;;19.38;74.81
61337;BME280;47212;41.326;2.104;2023-06-04T06:10:51;101298.19;;;19.44;74.73
61337;BME280;47212;41.326;2.104;2023-06-04T06:15:55;101299.13;;;19.53;74.38
61337;BME280;47212;41.326;2.104;2023-06-04T06:21:03;101302.47;;;19.63;74.33
61337;BME280;47212;41.326;2.104;2023-06-04T06:26:07;101303.91;;;19.75;73.94
61337;BME280;47212;41.326;2.104;2023-06-04T06:31:23;101302.72;;;19.89;73.30
61337;BME280;47212;41.326;2.104;2023-06-04T06:36:25;101304.22;;;20.09;73.20
61337;BME280;47212;41.326;2.104;2023-06-04T06:41:36;101300.34;;;20.32;72.72
61337;BME280;47212;41.326;2.104;2023-06-04T06:46:41;101290.31;;;20.59;72.25
61337;BME280;47212;41.326;2.104;2023-06-04T06:51:46;101295.69;;;20.86;71.46
61337;BME280;47212;41.326;2.104;2023-06-04T06:57:03;101293.69;;;21.18;70.80
61337;BME280;47212;41.326;2.104;2023-06-04T07:02:21;101307.19;;;21.50;69.81
61337;BME280;47212;41.326;2.104;2023-06-04T07:07:24;101303.50;;;21.81;69.23
61337;BME280;47212;41.326;2.104;2023-06-04T07:12:28;101300.78;;;22.07;68.57
61337;BME280;47212;41.326;2.104;2023-06-04T07:17:31;101295.22;;;22.33;67.62
61337;BME280;47212;41.326;2.104;2023-06-04T07:22:38;101304.00;;;22.61;67.31
61337;BME280;47212;41.326;2.104;2023-06-04T07:27:44;101316.38;;;22.89;66.86
61337;BME280;47212;41.326;2.104;2023-06-04T07:32:50;101319.72;;;23.12;66.33
61337;BME280;47212;41.326;2.104;2023-06-04T07:37:56;101325.84;;;23.26;65.81
61337;BME280;47212;41.326;2.104;2023-06-04T07:42:58;101329.22;;;23.40;65.83
61337;BME280;47212;41.326;2.104;2023-06-04T07:48:04;101345.19;;;23.52;66.11
61337;BME280;47212;41.326;2.104;2023-06-04T07:53:09;101343.50;;;23.30;66.42
61337;BME280;47212;41.326;2.104;2023-06-04T07:58:12;101339.22;;;23.33;66.05
61337;BME280;47212;41.326;2.104;2023-06-04T08:03:15;101335.50;;;23.29;66.20
61337;BME280;47212;41.326;2.104;2023-06-04T08:08:21;101357.13;;;23.52;65.65
61337;BME280;47212;41.326;2.104;2023-06-04T08:13:27;101360.00;;;23.73;64.70
61337;BME280;47212;41.326;2.104;2023-06-04T08:18:32;101361.03;;;23.90;64.47
61337;BME280;47212;41.326;2.104;2023-06-04T08:23:34;101354.22;;;23.78;65.07
61337;BME280;47212;41.326;2.104;2023-06-04T08:28:36;101347.88;;;23.78;65.59
61337;BME280;47212;41.326;2.104;2023-06-04T08:33:41;101352.44;;;24.03;65.47
61337;BME280;47212;41.326;2.104;2023-06-04T08:38:46;101364.69;;;24.02;65.47
61337;BME280;47212;41.326;2.104;2023-06-04T08:44:05;101357.63;;;23.84;66.01
61337;BME280;47212;41.326;2.104;2023-06-04T08:49:33;101358.03;;;23.74;66.63
61337;BME280;47212;41.326;2.104;2023-06-04T08:54:44;101353.28;;;23.74;66.70
61337;BME280;47212;41.326;2.104;2023-06-04T09:00:03;101351.88;;;23.89;66.62
61337;BME280;47212;41.326;2.104;2023-06-04T09:05:39;101360.97;;;23.98;66.46
61337;BME280;47212;41.326;2.104;2023-06-04T09:10:48;101370.91;;;23.78;65.89
61337;BME280;47212;41.326;2.104;2023-06-04T09:16:07;101368.66;;;23.72;67.13
61337;BME280;47212;41.326;2.104;2023-06-04T09:21:25;101365.63;;;23.86;67.69
61337;BME280;47212;41.326;2.104;2023-06-04T09:26:38;101374.31;;;23.84;67.42
61337;BME280;47212;41.326;2.104;2023-06-04T09:32:04;101371.38;;;23.80;67.85
61337;BME280;47212;41.326;2.104;2023-06-04T09:37:16;101371.63;;;23.96;66.94
61337;BME280;47212;41.326;2.104;2023-06-04T09:42:24;101376.78;;;24.06;66.22
61337;BME280;47212;41.326;2.104;2023-06-04T09:47:42;101373.72;;;23.99;65.47
61337;BME280;47212;41.326;2.104;2023-06-04T09:58:21;101368.22;;;24.11;66.67
61337;BME280;47212;41.326;2.104;2023-06-04T10:03:36;101383.44;;;24.14;66.28
61337;BME280;47212;41.326;2.104;2023-06-04T10:08:58;101387.28;;;24.01;66.02
61337;BME280;47212;41.326;2.104;2023-06-04T10:14:41;101374.28;;;23.63;63.71
61337;BME280;47212;41.326;2.104;2023-06-04T10:19:59;101377.91;;;23.85;62.97
61337;BME280;47212;41.326;2.104;2023-06-04T10:25:07;101386.97;;;23.73;63.79
61337;BME280;47212;41.326;2.104;2023-06-04T10:30:38;101368.72;;;23.63;65.29
61337;BME280;47212;41.326;2.104;2023-06-04T10:35:56;101381.13;;;23.66;65.71
61337;BME280;47212;41.326;2.104;2023-06-04T10:41:13;101384.97;;;23.35;64.22
61337;BME280;47212;41.326;2.104;2023-06-04T10:46:22;101385.91;;;23.57;65.04
61337;BME280;47212;41.326;2.104;2023-06-04T10:51:35;101373.50;;;23.83;64.80
61337;BME280;47212;41.326;2.104;2023-06-04T10:56:42;101366.72;;;23.93;64.64
61337;BME280;47212;41.326;2.104;2023-06-04T11:01:51;101366.66;;;23.81;66.11
61337;BME280;47212;41.326;2.104;2023-06-04T11:07:03;101376.91;;;23.89;63.44
61337;BME280;47212;41.326;2.104;2023-06-04T11:12:17;101376.91;;;24.10;61.58
61337;BME280;47212;41.326;2.104;2023-06-04T11:17:20;101365.69;;;24.27;62.21
61337;BME280;47212;41.326;2.104;2023-06-04T11:22:23;101366.66;;;24.31;61.93
61337;BME280;47212;41.326;2.104;2023-06-04T11:27:33;101363.41;;;24.29;60.07
61337;BME280;47212;41.326;2.104;2023-06-04T11:32:43;101348.56;;;24.17;58.71
61337;BME280;47212;41.326;2.104;2023-06-04T11:37:56;101347.81;;;24.07;58.78
61337;BME280;47212;41.326;2.104;2023-06-04T11:43:05;101339.13;;;24.09;59.83
61337;BME280;47212;41.326;2.104;2023-06-04T11:48:10;101341.22;;;24.12;59.67
61337;BME280;47212;41.326;2.104;2023-06-04T11:53:13;101347.06;;;24.19;61.45
61337;BME280;47212;41.326;2.104;2023-06-04T11:58:21;101339.19;;;24.21;59.65
61337;BME280;47212;41.326;2.104;2023-06-04T12:03:45;101339.25;;;24.12;57.92
61337;BME280;47212;41.326;2.104;2023-06-04T12:08:53;101341.31;;;24.03;59.94
61337;BME280;47212;41.326;2.104;2023-06-04T12:13:59;101320.22;;;24.02;59.41
61337;BME280;47212;41.326;2.104;2023-06-04T12:19:19;101321.00;;;23.82;58.83
61337;BME280;47212;41.326;2.104;2023-06-04T12:24:21;101336.75;;;23.78;60.39
61337;BME280;47212;41.326;2.104;2023-06-04T12:29:23;101332.19;;;23.73;61.18
61337;BME280;47212;41.326;2.104;2023-06-04T12:34:28;101314.56;;;23.90;59.44
61337;BME280;47212;41.326;2.104;2023-06-04T12:39:35;101319.47;;;23.93;59.10
61337;BME280;47212;41.326;2.104;2023-06-04T12:44:50;101320.63;;;23.92;59.17
61337;BME280;47212;41.326;2.104;2023-06-04T12:49:53;101335.66;;;23.70;61.02
61337;BME280;47212;41.326;2.104;2023-06-04T12:55:03;101347.56;;;23.71;59.48
61337;BME280;47212;41.326;2.104;2023-06-04T13:00:14;101358.03;;;23.74;60.76
61337;BME280;47212;41.326;2.104;2023-06-04T13:05:19;101353.13;;;23.71;60.05
61337;BME280;47212;41.326;2.104;2023-06-04T13:10:22;101355.63;;;23.64;62.42
61337;BME280;47212;41.326;2.104;2023-06-04T13:15:39;101351.91;;;23.60;63.07
61337;BME280;47212;41.326;2.104;2023-06-04T13:20:43;101357.81;;;23.49;63.09
61337;BME280;47212;41.326;2.104;2023-06-04T13:25:50;101353.19;;;23.15;65.11
61337;BME280;47212;41.326;2.104;2023-06-04T13:30:53;101346.56;;;22.91;66.46
61337;BME280;47212;41.326;2.104;2023-06-04T13:35:55;101353.44;;;22.84;65.51
61337;BME280;47212;41.326;2.104;2023-06-04T13:40:59;101358.00;;;22.89;66.67
61337;BME280;47212;41.326;2.104;2023-06-04T13:46:05;101368.78;;;22.91;68.52
61337;BME280;47212;41.326;2.104;2023-06-04T13:51:11;101361.09;;;22.96;69.70
61337;BME280;47212;41.326;2.104;2023-06-04T13:56:23;101365.50;;;22.97;67.98
61337;BME280;47212;41.326;2.104;2023-06-04T14:01:31;101356.81;;;23.07;68.29
61337;BME280;47212;41.326;2.104;2023-06-04T14:06:50;101352.72;;;23.05;68.84
61337;BME280;47212;41.326;2.104;2023-06-04T14:12:08;101343.59;;;23.04;68.05
61337;BME280;47212;41.326;2.104;2023-06-04T14:17:10;101336.72;;;23.10;66.62
61337;BME280;47212;41.326;2.104;2023-06-04T14:22:15;101339.34;;;23.07;67.32
61337;BME280;47212;41.326;2.104;2023-06-04T14:27:19;101360.25;;;23.04;66.04
61337;BME280;47212;41.326;2.104;2023-06-04T14:32:24;101358.59;;;23.12;65.69
61337;BME280;47212;41.326;2.104;2023-06-04T14:37:27;101345.00;;;23.19;64.09
61337;BME280;47212;41.326;2.104;2023-06-04T14:42:29;101345.59;;;23.42;64.12
61337;BME280;47212;41.326;2.104;2023-06-04T14:47:31;101342.91;;;23.54;63.84
61337;BME280;47212;41.326;2.104;2023-06-04T14:52:34;101334.91;;;23.52;64.20
61337;BME280;47212;41.326;2.104;2023-06-04T14:57:37;101341.28;;;23.53;63.63
61337;BME280;47212;41.326;2.104;2023-06-04T15:02:40;101338.06;;;23.42;63.48
61337;BME280;47212;41.326;2.104;2023-06-04T15:07:47;101323.22;;;23.30;64.36
61337;BME280;47212;41.326;2.104;2023-06-04T15:12:52;101316.75;;;23.17;64.31
61337;BME280;47212;41.326;2.104;2023-06-04T15:17:54;101302.38;;;23.15;65.67
61337;BME280;47212;41.326;2.104;2023-06-04T15:22:57;101298.75;;;23.23;66.26
61337;BME280;47212;41.326;2.104;2023-06-04T15:28:03;101306.91;;;23.28;66.28
61337;BME280;47212;41.326;2.104;2023-06-04T15:33:06;101307.91;;;23.24;66.66
61337;BME280;47212;41.326;2.104;2023-06-04T15:38:14;101310.09;;;23.39;66.83
61337;BME280;47212;41.326;2.104;2023-06-04T15:43:23;101315.56;;;23.65;65.97
61337;BME280;47212;41.326;2.104;2023-06-04T15:48:28;101327.50;;;23.65;65.97
61337;BME280;47212;41.326;2.104;2023-06-04T15:53:31;101323.50;;;23.75;65.79
61337;BME280;47212;41.326;2.104;2023-06-04T15:58:35;101306.84;;;23.75;65.47
61337;BME280;47212;41.326;2.104;2023-06-04T16:03:40;101306.34;;;23.73;65.21
61337;BME280;47212;41.326;2.104;2023-06-04T16:08:48;101309.25;;;23.56;65.87
61337;BME280;47212;41.326;2.104;2023-06-04T16:13:55;101327.59;;;23.39;66.11
61337;BME280;47212;41.326;2.104;2023-06-04T16:19:10;101321.63;;;23.20;66.82
61337;BME280;47212;41.326;2.104;2023-06-04T16:24:16;101337.06;;;23.00;67.37
61337;BME280;47212;41.326;2.104;2023-06-04T16:29:20;101331.56;;;22.92;67.56
61337;BME280;47212;41.326;2.104;2023-06-04T16:34:34;101329.78;;;22.87;67.88
61337;BME280;47212;41.326;2.104;2023-06-04T16:39:39;101325.53;;;22.72;68.27
61337;BME280;47212;41.326;2.104;2023-06-04T16:44:41;101322.13;;;22.58;68.73
61337;BME280;47212;41.326;2.104;2023-06-04T16:49:43;101327.53;;;22.54;68.87
61337;BME280;47212;41.326;2.104;2023-06-04T16:54:49;101317.72;;;22.48;69.46
61337;BME280;47212;41.326;2.104;2023-06-04T17:00:17;101315.13;;;22.43;70.64
61337;BME280;47212;41.326;2.104;2023-06-04T17:05:28;101317.91;;;22.35;69.92
61337;BME280;47212;41.326;2.104;2023-06-04T17:10:31;101316.75;;;22.36;70.87
61337;BME280;47212;41.326;2.104;2023-06-04T17:15:39;101320.81;;;22.47;71.19
61337;BME280;47212;41.326;2.104;2023-06-04T17:20:42;101323.75;;;22.50;71.13
61337;BME280;47212;41.326;2.104;2023-06-04T17:25:47;101328.97;;;22.52;70.97
61337;BME280;47212;41.326;2.104;2023-06-04T17:30:49;101320.50;;;22.57;71.41
61337;BME280;47212;41.326;2.104;2023-06-04T17:35:58;101323.28;;;22.57;72.32
61337;BME280;47212;41.326;2.104;2023-06-04T17:41:02;101328.47;;;22.50;71.98
61337;BME280;47212;41.326;2.104;2023-06-04T17:46:08;101333.22;;;22.41;72.15
61337;BME280;47212;41.326;2.104;2023-06-04T17:51:12;101327.69;;;22.41;72.15
61337;BME280;47212;41.326;2.104;2023-06-04T17:56:14;101331.94;;;22.38;72.00
61337;BME280;47212;41.326;2.104;2023-06-04T18:01:17;101331.28;;;22.33;72.22
61337;BME280;47212;41.326;2.104;2023-06-04T18:06:45;101334.38;;;22.22;72.44
61337;BME280;47212;41.326;2.104;2023-06-04T18:11:49;101329.00;;;22.17;72.66
61337;BME280;47212;41.326;2.104;2023-06-04T18:16:58;101327.84;;;22.10;73.49
61337;BME280;47212;41.326;2.104;2023-06-04T18:22:03;101330.59;;;22.01;74.98
61337;BME280;47212;41.326;2.104;2023-06-04T18:27:18;101323.09;;;21.93;73.90
61337;BME280;47212;41.326;2.104;2023-06-04T18:32:29;101322.44;;;21.87;75.19
61337;BME280;47212;41.326;2.104;2023-06-04T18:37:36;101333.19;;;21.89;74.67
61337;BME280;47212;41.326;2.104;2023-06-04T18:42:38;101329.28;;;21.90;74.73
61337;BME280;47212;41.326;2.104;2023-06-04T18:47:42;101328.47;;;21.89;74.85
61337;BME280;47212;41.326;2.104;2023-06-04T18:52:44;101329.28;;;21.90;74.93
61337;BME280;47212;41.326;2.104;2023-06-04T18:57:47;101337.59;;;21.99;74.92
61337;BME280;47212;41.326;2.104;2023-06-04T19:02:49;101339.72;;;21.93;74.99
61337;BME280;47212;41.326;2.104;2023-06-04T19:07:51;101347.22;;;21.92;75.25
61337;BME280;47212;41.326;2.104;2023-06-04T19:13:02;101343.13;;;21.90;75.67
61337;BME280;47212;41.326;2.104;2023-06-04T19:18:08;101364.00;;;21.96;75.51
61337;BME280;47212;41.326;2.104;2023-06-04T19:23:17;101359.94;;;22.02;75.31
61337;BME280;47212;41.326;2.104;2023-06-04T19:28:21;101366.34;;;22.03;75.44
61337;BME280;47212;41.326;2.104;2023-06-04T19:33:25;101361.59;;;22.03;75.20
61337;BME280;47212;41.326;2.104;2023-06-04T19:38:28;101363.84;;;22.01;75.34
61337;BME280;47212;41.326;2.104;2023-06-04T19:43:30;101375.09;;;21.96;74.92
61337;BME280;47212;41.326;2.104;2023-06-04T19:48:34;101379.16;;;21.90;74.95
61337;BME280;47212;41.326;2.104;2023-06-04T19:53:36;101374.44;;;21.82;74.75
61337;BME280;47212;41.326;2.104;2023-06-04T19:58:38;101386.66;;;21.81;74.73
61337;BME280;47212;41.326;2.104;2023-06-04T20:03:41;101394.47;;;21.79;74.82
61337;BME280;47212;41.326;2.104;2023-06-04T20:08:45;101396.75;;;21.77;75.44
61337;BME280;47212;41.326;2.104;2023-06-04T20:13:47;101404.56;;;21.75;75.50
61337;BME280;47212;41.326;2.104;2023-06-04T20:18:49;101407.66;;;21.73;75.69
61337;BME280;47212;41.326;2.104;2023-06-04T20:23:53;101413.84;;;21.70;76.74
61337;BME280;47212;41.326;2.104;2023-06-04T20:29:00;101421.75;;;21.54;77.60
61337;BME280;47212;41.326;2.104;2023-06-04T20:34:05;101422.03;;;21.44;77.69
61337;BME280;47212;41.326;2.104;2023-06-04T20:39:08;101417.31;;;21.45;78.01
61337;BME280;47212;41.326;2.104;2023-06-04T20:44:16;101417.47;;;21.48;78.05
61337;BME280;47212;41.326;2.104;2023-06-04T20:49:19;101415.38;;;21.54;77.59
61337;BME280;47212;41.326;2.104;2023-06-04T20:54:21;101425.00;;;21.56;77.56
61337;BME280;47212;41.326;2.104;2023-06-04T20:59:28;101431.03;;;21.58;77.67
61337;BME280;47212;41.326;2.104;2023-06-04T21:04:30;101436.44;;;21.63;77.76
61337;BME280;47212;41.326;2.104;2023-06-04T21:09:36;101435.63;;;21.63;78.02
61337;BME280;47212;41.326;2.104;2023-06-04T21:14:43;101441.00;;;21.59;78.57
61337;BME280;47212;41.326;2.104;2023-06-04T21:19:45;101448.47;;;21.59;78.28
61337;BME280;47212;41.326;2.104;2023-06-04T21:24:48;101444.06;;;21.58;77.75
61337;BME280;47212;41.326;2.104;2023-06-04T21:30:04;101448.81;;;21.57;77.02
61337;BME280;47212;41.326;2.104;2023-06-04T21:35:32;101433.63;;;21.55;76.64
61337;BME280;47212;41.326;2.104;2023-06-04T21:40:40;101432.81;;;21.54;76.68
61337;BME280;47212;41.326;2.104;2023-06-04T21:46:18;101429.56;;;21.52;76.69
61337;BME280;47212;41.326;2.104;2023-06-04T21:51:21;101429.22;;;21.54;76.25
61337;BME280;47212;41.326;2.104;2023-06-04T21:56:28;101436.72;;;21.53;75.97
61337;BME280;47212;41.326;2.104;2023-06-04T22:01:31;101442.72;;;21.47;76.38
61337;BME280;47212;41.326;2.104;2023-06-04T22:06:37;101441.56;;;21.39;76.68
61337;BME280;47212;41.326;2.104;2023-06-04T22:11:40;101448.34;;;21.33;76.72
61337;BME280;47212;41.326;2.104;2023-06-04T22:16:49;101456.81;;;21.28;77.23
61337;BME280;47212;41.326;2.104;2023-06-04T22:22:09;101456.63;;;21.24;77.49
61337;BME280;47212;41.326;2.104;2023-06-04T22:27:11;101452.00;;;21.20;77.86
61337;BME280;47212;41.326;2.104;2023-06-04T22:32:15;101455.41;;;21.17;78.15
61337;BME280;47212;41.326;2.104;2023-06-04T22:37:20;101462.38;;;21.14;77.92
61337;BME280;47212;41.326;2.104;2023-06-04T22:42:23;101461.38;;;21.10;78.23
61337;BME280;47212;41.326;2.104;2023-06-04T22:47:25;101456.16;;;21.09;77.92
61337;BME280;47212;41.326;2.104;2023-06-04T22:52:28;101453.41;;;21.09;77.91
61337;BME280;47212;41.326;2.104;2023-06-04T22:57:38;101457.31;;;21.08;77.54
61337;BME280;47212;41.326;2.104;2023-06-04T23:02:44;101452.41;;;21.05;77.21
61337;BME280;47212;41.326;2.104;2023-06-04T23:07:55;101456.13;;;21.00;75.42
61337;BME280;47212;41.326;2.104;2023-06-04T23:12:59;101452.66;;;20.94;75.47
61337;BME280;47212;41.326;2.104;2023-06-04T23:18:06;101453.41;;;20.86;75.19
61337;BME280;47212;41.326;2.104;2023-06-04T23:23:15;101455.47;;;20.81;74.82
61337;BME280;47212;41.326;2.104;2023-06-04T23:28:20;101457.53;;;20.75;74.81
61337;BME280;47212;41.326;2.104;2023-06-04T23:33:33;101451.28;;;20.70;75.01
61337;BME280;47212;41.326;2.104;2023-06-04T23:38:39;101448.66;;;20.64;75.17
61337;BME280;47212;41.326;2.104;2023-06-04T23:43:42;101441.28;;;20.60;75.18
61337;BME280;47212;41.326;2.104;2023-06-04T23:48:45;101445.19;;;20.59;75.28
61337;BME280;47212;41.326;2.104;2023-06-04T23:53:48;101441.28;;;20.60;75.11
61337;BME280;47212;41.326;2.104;2023-06-04T23:58:50;101445.19;;;20.59;74.74
